Time;durP1;ratioP1;P1;durP2;ratioP2;P2;SDS_P1;SDS_P2;PMS_P1;PMS_P2;Temp;Humidity;BMP_temperature;BMP_pressure;BME280_temperature;BME280_humidity;BME280_pressure;Samples;Min_cycle;Max_cycle;Signal;HPM_P1;HPM_P2
2022/03/18 00:00:33;;;;;;;18.77;13.73;;;8.20;99.90;;;8.51;71.75;99232.91;5007217;28;20042;-41
2022/03/18 00:03:01;;;;;;;20.20;13.53;;;8.20;99.90;;;8.52;71.66;99230.16;5007665;28;20323;-41
2022/03/18 00:05:31;;;;;;;20.73;12.77;;;8.20;99.90;;;8.53;71.66;99228.34;5007896;28;20239;-41
2022/03/18 00:07:59;;;;;;;22.17;12.97;;;8.30;99.90;;;8.56;71.63;99236.94;5007098;28;20045;-41
2022/03/18 00:10:28;;;;;;;19.63;12.63;;;8.30;99.90;;;8.55;71.41;99235.28;5007757;28;20048;-41
2022/03/18 00:12:57;;;;;;;18.27;12.63;;;8.30;99.90;;;8.56;71.32;99233.44;5007645;28;20060;-41
2022/03/18 00:15:27;;;;;;;18.83;12.83;;;8.30;99.90;;;8.57;71.37;99237.78;5008289;28;20072;-41
2022/03/18 00:17:56;;;;;;;17.03;11.70;;;8.30;99.90;;;8.61;71.24;99236.63;5007345;28;20061;-41
2022/03/18 00:20:24;;;;;;;20.87;12.83;;;8.30;99.90;;;8.60;71.09;99235.78;5007188;28;20060;-41
2022/03/18 00:22:52;;;;;;;18.20;13.00;;;8.40;99.90;;;8.63;70.93;99240.88;5005335;28;20046;-41
2022/03/18 00:25:20;;;;;;;17.57;13.50;;;8.40;99.90;;;8.54;70.53;99238.88;5007576;28;20073;-41
2022/03/18 00:27:48;;;;;;;17.93;11.57;;;8.30;99.90;;;8.51;70.67;99243.53;5007918;28;20049;-41
2022/03/18 00:30:17;;;;;;;17.33;12.73;;;8.10;99.90;;;8.48;70.95;99234.84;5007527;28;20052;-41
2022/03/18 00:32:47;;;;;;;16.53;12.13;;;8.20;99.90;;;8.41;70.92;99238.00;5007129;28;20046;-42
2022/03/18 00:35:35;;;;;;;19.87;12.97;;;8.10;99.90;;;8.44;70.71;99233.38;5007744;28;20068;-41
2022/03/18 00:38:03;;;;;;;20.90;12.37;;;8.10;99.90;;;8.42;71.02;99242.41;5006230;28;20045;-41
2022/03/18 00:40:32;;;;;;;16.40;11.63;;;8.10;99.90;;;8.42;70.92;99239.75;5006508;28;20041;-41
2022/03/18 00:43:03;;;;;;;18.23;12.67;;;8.10;99.90;;;8.34;70.82;99247.38;5008273;28;20057;-41
2022/03/18 00:45:32;;;;;;;18.67;12.10;;;8.00;99.90;;;8.32;71.14;99247.47;5005219;28;20049;-41
2022/03/18 00:53:33;;;;;;;18.60;12.23;;;8.00;99.90;;;8.30;71.13;99244.09;5006720;28;20056;-41
2022/03/18 00:56:01;;;;;;;15.80;11.07;;;8.00;99.90;;;8.23;71.09;99254.25;5007182;28;20457;-41
2022/03/18 00:58:29;;;;;;;17.03;10.57;;;7.90;99.90;;;8.20;70.92;99248.31;5006103;28;20052;-41
2022/03/18 01:00:57;;;;;;;17.00;10.47;;;7.80;99.90;;;8.18;70.74;99250.22;5006294;28;20352;-41
2022/03/18 01:03:25;;;;;;;16.70;11.63;;;7.80;99.90;;;8.19;71.18;99241.34;5007012;28;20374;-41
2022/03/18 01:05:54;;;;;;;16.90;12.00;;;7.80;99.90;;;8.15;71.10;99246.00;5007073;28;20064;-41
2022/03/18 01:08:22;;;;;;;15.67;10.93;;;7.80;99.90;;;8.20;71.26;99240.34;5006648;28;20048;-41
2022/03/18 01:10:50;;;;;;;21.83;12.63;;;7.90;99.90;;;8.21;70.96;99245.56;5005431;28;20373;-41
2022/03/18 01:13:18;;;;;;;18.30;11.73;;;8.00;99.90;;;8.19;70.95;99255.44;5005933;28;20053;-41
2022/03/18 01:15:46;;;;;;;16.83;11.40;;;8.00;99.90;;;8.23;70.85;99251.59;5006332;28;20042;-41
2022/03/18 01:18:15;;;;;;;17.43;11.47;;;8.00;99.90;;;8.28;70.77;99251.31;5007034;28;20053;-41
2022/03/18 01:20:43;;;;;;;15.87;12.70;;;8.00;99.90;;;8.25;70.97;99255.00;5006734;28;20057;-41
2022/03/18 01:23:11;;;;;;;15.60;10.63;;;8.00;99.90;;;8.24;70.73;99257.78;5008294;28;20264;-41
2022/03/18 01:25:39;;;;;;;17.53;11.83;;;8.00;99.90;;;8.16;70.49;99252.16;5006842;28;20332;-41
2022/03/18 01:28:07;;;;;;;17.03;12.73;;;7.90;99.90;;;8.16;70.87;99254.78;5006811;28;20372;-41
2022/03/18 01:30:35;;;;;;;16.43;11.10;;;7.90;99.90;;;8.12;70.75;99261.28;5006707;28;20251;-41
2022/03/18 01:33:03;;;;;;;15.70;10.67;;;7.80;99.90;;;8.14;70.70;99251.41;5006993;28;20062;-41
2022/03/18 01:35:31;;;;;;;14.43;10.33;;;7.80;99.90;;;8.11;70.62;99255.13;5005423;28;20062;-41
2022/03/18 01:37:58;;;;;;;15.37;11.87;;;7.80;99.90;;;8.13;71.00;99253.22;5003402;28;20045;-41
2022/03/18 01:40:26;;;;;;;15.77;10.70;;;7.80;99.90;;;8.11;70.77;99255.13;5006338;28;20274;-41
2022/03/18 01:42:54;;;;;;;16.33;11.00;;;7.80;99.90;;;8.10;70.71;99250.75;5005580;28;20060;-41
2022/03/18 01:45:22;;;;;;;15.63;10.77;;;7.90;99.90;;;8.08;70.45;99256.19;5005345;28;20050;-41
2022/03/18 01:47:50;;;;;;;16.17;11.20;;;7.80;99.90;;;8.13;70.35;99258.53;5006590;28;20056;-41
2022/03/18 01:50:18;;;;;;;15.53;11.37;;;7.90;99.90;;;8.18;70.43;99247.56;5005524;28;20068;-41
2022/03/18 01:52:46;;;;;;;15.83;10.57;;;7.90;99.90;;;8.16;70.65;99252.16;5006448;28;20060;-41
2022/03/18 01:55:17;;;;;;;17.60;10.57;;;7.90;99.90;;;8.17;70.24;99252.03;5006209;28;20391;-41
2022/03/18 01:57:45;;;;;;;16.83;10.77;;;7.90;99.90;;;8.17;70.60;99252.03;5006285;28;20060;-41
2022/03/18 02:00:14;;;;;;;14.97;10.47;;;7.90;99.90;;;8.19;70.20;99259.91;5006128;28;20158;-41
2022/03/18 02:02:42;;;;;;;16.40;11.30;;;8.00;99.90;;;8.15;70.22;99263.72;5007285;28;20054;-41
2022/03/18 02:05:11;;;;;;;14.80;11.13;;;7.90;99.90;;;8.13;69.99;99263.81;5005972;28;20321;-40
2022/03/18 02:07:39;;;;;;;14.63;10.83;;;7.80;99.90;;;8.13;70.08;99261.19;5006028;28;20053;-40
2022/03/18 02:10:07;;;;;;;15.47;10.57;;;7.90;99.90;;;8.08;70.03;99268.59;5006476;28;20064;-40
2022/03/18 02:12:36;;;;;;;17.93;12.13;;;7.80;99.90;;;8.12;70.02;99264.75;5006611;28;20068;-40
2022/03/18 02:15:04;;;;;;;13.67;10.00;;;7.80;99.90;;;8.13;69.96;99270.94;5007699;28;20061;-40
2022/03/18 02:17:32;;;;;;;15.87;10.63;;;7.80;99.90;;;8.10;70.03;99274.63;5006668;28;20088;-41
2022/03/18 02:20:00;;;;;;;15.83;10.60;;;7.80;99.90;;;8.13;70.08;99266.47;5006242;28;20068;-41
2022/03/18 02:22:40;;;;;;;14.87;10.37;;;7.90;99.90;;;8.16;69.74;99263.63;5006913;28;20060;-40
2022/03/18 02:25:12;;;;;;;13.53;9.93;;;8.00;99.90;;;8.17;69.85;99275.91;5007087;28;20045;-40
2022/03/18 02:27:53;;;;;;;14.77;10.23;;;8.00;99.90;;;8.07;69.41;99273.06;5009043;28;20422;-40
2022/03/18 02:30:21;;;;;;;15.03;11.10;;;7.90;99.90;;;8.01;69.97;99281.44;5009392;28;20049;-41
2022/03/18 02:32:49;;;;;;;13.83;9.63;;;7.70;99.90;;;8.02;69.85;99280.47;5010149;28;20045;-41
2022/03/18 02:35:17;;;;;;;15.07;9.60;;;7.70;99.90;;;8.00;69.95;99278.88;5010739;28;20054;-40
2022/03/18 02:37:46;;;;;;;15.00;10.00;;;7.70;99.90;;;7.98;69.58;99280.78;5010279;28;20042;-41
2022/03/18 02:40:15;;;;;;;15.70;10.83;;;7.70;99.90;;;7.96;69.70;99274.75;5009164;28;20062;-41
2022/03/18 02:42:44;;;;;;;13.50;9.23;;;7.70;99.90;;;8.01;70.00;99277.94;5009579;28;20056;-41
2022/03/18 02:45:12;;;;;;;15.83;10.83;;;7.70;99.90;;;8.01;69.82;99273.47;5009831;28;20048;-41
2022/03/18 02:47:40;;;;;;;16.53;9.13;;;7.70;99.90;;;8.03;69.78;99284.00;5009638;28;20222;-41
2022/03/18 02:50:08;;;;;;;15.83;9.40;;;7.70;99.90;;;8.02;69.63;99276.97;5008810;28;20431;-40
2022/03/18 02:52:36;;;;;;;14.13;9.87;;;7.70;99.90;;;8.02;69.86;99280.47;5008815;28;20053;-41
2022/03/18 02:55:04;;;;;;;16.07;9.60;;;7.70;99.90;;;8.02;69.60;99276.97;5009658;28;20046;-40
2022/03/18 02:57:32;;;;;;;16.27;9.73;;;7.70;99.90;;;7.96;69.57;99291.50;5007959;28;20327;-41
2022/03/18 03:00:00;;;;;;;13.60;9.30;;;7.70;99.90;;;8.01;69.75;99291.22;5009034;28;20339;-40
2022/03/18 03:02:28;;;;;;;11.90;8.63;;;7.70;99.90;;;7.98;69.37;99284.28;5008314;28;20041;-41
2022/03/18 03:08:01;;;;;;;14.43;9.30;;;7.80;99.90;;;8.00;69.72;99292.97;5008083;28;20363;-41
2022/03/18 03:10:34;;;;;;;15.80;9.87;;;7.70;99.90;;;7.94;69.04;99300.53;5009337;28;20382;-40
2022/03/18 03:13:06;;;;;;;15.13;10.25;;;7.60;99.90;;;7.97;69.14;99293.22;5007946;28;20356;-40
2022/03/18 03:15:34;;;;;;;13.83;9.87;;;7.70;99.90;;;7.94;69.25;99293.41;5009316;28;20062;-41
2022/03/18 03:18:02;;;;;;;15.20;10.07;;;7.70;99.90;;;7.92;69.36;99305.94;5008927;28;20052;-40
2022/03/18 03:20:30;;;;;;;13.00;8.73;;;7.70;99.90;;;7.88;69.41;99307.09;5007466;28;20054;-41
2022/03/18 03:22:58;;;;;;;11.40;8.33;;;7.60;99.90;;;7.90;69.43;99310.47;5008688;28;20249;-41
2022/03/18 03:25:26;;;;;;;14.40;9.30;;;7.60;99.90;;;7.87;69.08;99314.19;5008638;28;20047;-41
2022/03/18 03:27:55;;;;;;;15.03;9.73;;;7.60;99.90;;;7.88;69.00;99321.19;5010160;28;20053;-41
2022/03/18 03:30:24;;;;;;;14.23;8.57;;;7.60;99.90;;;7.91;69.22;99321.94;5008598;28;20041;-41
2022/03/18 03:32:52;;;;;;;13.33;9.03;;;7.70;99.90;;;7.95;69.04;99326.94;5008498;28;20080;-41
2022/03/18 03:35:20;;;;;;;12.27;8.60;;;7.70;99.90;;;7.96;69.30;99327.78;5007627;28;20344;-41
2022/03/18 03:37:47;;;;;;;12.40;8.60;;;7.70;99.90;;;7.94;68.95;99327.88;5007962;28;20060;-41
2022/03/18 03:40:15;;;;;;;13.10;8.77;;;7.70;99.90;;;7.92;68.82;99321.00;5009988;28;20088;-41
2022/03/18 03:42:45;;;;;;;14.00;8.47;;;7.70;99.90;;;7.92;69.27;99326.31;5008469;28;20251;-41
2022/03/18 03:45:14;;;;;;;14.23;9.60;;;7.70;99.90;;;7.93;68.68;99326.19;5007426;28;20050;-41
2022/03/18 03:47:42;;;;;;;13.60;9.50;;;7.70;99.90;;;7.97;69.14;99327.69;5008327;28;20050;-41
2022/03/18 03:50:10;;;;;;;13.03;8.13;;;7.70;99.90;;;7.91;69.14;99329.88;5006931;28;20448;-42
2022/03/18 03:52:39;;;;;;;12.37;8.37;;;7.60;99.90;;;7.87;68.90;99330.13;5007931;28;20075;-41
2022/03/18 03:55:09;;;;;;;12.37;8.73;;;7.60;99.90;;;7.84;69.30;99335.59;5007597;28;20050;-41
2022/03/18 03:57:38;;;;;;;17.50;10.30;;;7.60;99.90;;;7.90;69.05;99334.34;5007893;28;20323;-41
2022/03/18 04:00:09;;;;;;;14.30;9.87;;;7.60;99.90;;;7.98;69.02;99339.13;5007575;28;20343;-41
2022/03/18 04:02:37;;;;;;;16.67;10.07;;;7.80;99.90;;;8.04;68.93;99342.22;5007771;28;20038;-41
2022/03/18 04:05:08;;;;;;;13.80;8.33;;;7.80;99.90;;;8.05;68.93;99338.63;5007730;28;20465;-41
2022/03/18 04:07:41;;;;;;;14.43;9.07;;;7.90;99.90;;;8.07;68.58;99344.66;5006628;28;20279;-41
2022/03/18 04:10:13;;;;;;;14.25;9.60;;;7.90;99.90;;;8.10;68.80;99346.25;5007070;28;20049;-41
2022/03/18 04:12:43;;;;;;;10.13;7.57;;;7.90;99.90;;;8.07;68.87;99344.66;5007177;28;20057;-41
2022/03/18 04:15:11;;;;;;;11.53;8.23;;;7.90;99.90;;;8.03;68.75;99348.50;5006529;28;20054;-41
2022/03/18 04:17:47;;;;;;;10.40;7.60;;;7.80;99.90;;;8.05;68.78;99359.00;5006815;28;20336;-41
2022/03/18 04:20:21;;;;;;;12.43;8.30;;;7.80;99.90;;;8.07;68.49;99357.09;5007922;28;20264;-41
2022/03/18 04:22:51;;;;;;;14.27;8.27;;;7.80;99.90;;;8.06;68.83;99358.03;5007816;28;20089;-41
2022/03/18 04:25:22;;;;;;;11.63;8.17;;;7.80;99.90;;;8.06;68.89;99363.34;5009379;28;20045;-41
2022/03/18 04:27:50;;;;;;;11.83;8.33;;;7.80;99.90;;;8.02;68.56;99373.31;5007110;28;20375;-41
2022/03/18 04:30:18;;;;;;;12.30;8.77;;;7.70;99.90;;;7.98;68.56;99373.63;5008102;28;20060;-41
2022/03/18 04:32:46;;;;;;;11.53;7.83;;;7.70;99.90;;;7.96;68.71;99373.72;5008070;28;20348;-41
2022/03/18 04:35:14;;;;;;;14.43;9.40;;;7.70;99.90;;;8.00;68.54;99380.50;5007479;28;20079;-41
2022/03/18 04:37:43;;;;;;;15.03;8.60;;;7.70;99.90;;;7.98;68.22;99381.56;5006278;28;20068;-41
2022/03/18 04:40:13;;;;;;;12.77;7.73;;;7.80;99.90;;;7.98;68.28;99381.56;5007510;28;20063;-41
2022/03/18 04:42:44;;;;;;;12.50;8.97;;;7.70;99.90;;;7.89;68.44;99385.72;5007097;28;20056;-40
2022/03/18 04:45:13;;;;;;;13.67;7.73;;;7.60;99.90;;;7.87;68.30;99383.16;5006927;28;20129;-41
2022/03/18 04:47:41;;;;;;;12.10;7.83;;;7.70;99.90;;;7.84;68.27;99383.34;5005449;28;20275;-41
2022/03/18 04:50:12;;;;;;;10.40;7.80;;;7.60;99.90;;;7.88;68.64;99392.78;5007150;28;20049;-41
2022/03/18 04:52:39;;;;;;;11.93;8.13;;;7.70;99.90;;;7.82;68.40;99389.72;5006430;28;20056;-41
2022/03/18 04:55:08;;;;;;;14.47;8.23;;;7.60;99.90;;;7.64;68.83;99391.78;5006958;28;20057;-40
2022/03/18 04:57:36;;;;;;;16.23;7.77;;;7.40;99.90;;;7.63;68.86;99387.41;5007187;28;20072;-41
2022/03/18 05:00:06;;;;;;;12.03;7.60;;;7.40;99.90;;;7.60;68.72;99398.19;5006784;28;20057;-40
2022/03/18 05:02:36;;;;;;;12.27;8.20;;;7.30;99.90;;;7.63;68.63;99393.53;5006618;28;20060;-40
2022/03/18 05:05:08;;;;;;;14.80;8.33;;;7.40;99.90;;;7.60;68.94;99395.53;5007041;28;20050;-41
2022/03/18 05:07:39;;;;;;;13.73;7.97;;;7.30;99.90;;;7.57;69.09;99396.59;5006053;28;20356;-40
2022/03/18 05:10:09;;;;;;;13.10;7.77;;;7.40;99.90;;;7.62;68.59;99404.28;5007293;28;20048;-40
2022/03/18 05:12:37;;;;;;;11.37;8.20;;;7.50;99.90;;;7.65;69.06;99409.34;5006505;28;20057;-40
2022/03/18 05:15:08;;;;;;;11.53;7.57;;;7.50;99.90;;;7.62;68.98;99412.22;5022185;28;20054;-40
2022/03/18 05:17:39;;;;;;;12.40;7.77;;;7.40;99.90;;;7.59;68.66;99415.06;5006542;28;20058;-40
2022/03/18 05:20:10;;;;;;;14.77;8.10;;;7.40;99.90;;;7.64;68.77;99419.13;5006401;28;20062;-40
2022/03/18 05:22:38;;;;;;;13.17;8.40;;;7.50;99.90;;;7.58;68.63;99413.34;5006322;28;20046;-40
2022/03/18 05:25:07;;;;;;;13.17;8.33;;;7.40;99.90;;;7.58;68.67;99414.22;5006332;28;20050;-40
2022/03/18 05:27:43;;;;;;;14.13;7.97;;;7.30;99.90;;;7.60;68.39;99425.56;5005515;28;20052;-41
2022/03/18 05:30:15;;;;;;;12.90;7.30;;;7.40;99.90;;;7.63;68.57;99422.72;5006960;28;20068;-41
2022/03/18 05:32:43;;;;;;;14.50;9.23;;;7.40;99.90;;;7.70;68.58;99431.13;5006521;28;20061;-41
2022/03/18 05:35:12;;;;;;;15.67;9.60;;;7.50;99.90;;;7.73;68.18;99428.25;5007183;28;20057;-40
2022/03/18 05:37:40;;;;;;;16.37;9.73;;;7.60;99.90;;;7.78;68.44;99431.47;5006967;28;20053;-40
2022/03/18 05:40:10;;;;;;;14.73;9.30;;;7.60;99.90;;;7.78;68.60;99433.28;5006497;28;20515;-40
2022/03/18 05:42:40;;;;;;;15.43;9.37;;;7.60;99.90;;;7.78;67.92;99434.13;5006359;28;20045;-40
2022/03/18 05:45:08;;;;;;;14.17;8.77;;;7.60;99.90;;;7.77;68.42;99439.53;5006731;28;20334;-40
2022/03/18 05:47:36;;;;;;;13.60;8.67;;;7.60;99.90;;;7.76;68.00;99441.34;5005797;28;20060;-41
2022/03/18 05:50:06;;;;;;;16.93;8.77;;;7.60;99.90;;;7.76;67.88;99440.50;5006607;28;20037;-41
2022/03/18 05:52:37;;;;;;;16.73;8.73;;;7.60;99.90;;;7.72;67.55;99442.47;5006646;28;20054;-41
2022/03/18 05:55:06;;;;;;;13.77;9.10;;;7.50;99.90;;;7.71;67.80;99437.28;5006338;28;20049;-41
2022/03/18 05:57:34;;;;;;;15.80;8.90;;;7.50;99.90;;;7.69;68.19;99451.47;5005805;28;20053;-41
2022/03/18 06:00:03;;;;;;;14.27;9.03;;;7.50;99.90;;;7.66;68.02;99449.03;5005891;28;20041;-41
2022/03/18 06:02:39;;;;;;;16.73;9.07;;;7.40;99.90;;;7.62;67.91;99452.00;5010433;28;20054;-41
2022/03/18 06:05:09;;;;;;;13.57;9.23;;;7.40;99.90;;;7.60;68.34;99459.16;5008818;28;20054;-40
2022/03/18 06:07:38;;;;;;;14.57;9.60;;;7.30;99.90;;;7.63;67.97;99461.63;5009487;28;20069;-40
2022/03/18 06:12:52;;;;;;;15.17;10.30;;;7.50;99.90;;;7.72;68.31;99469.00;5010430;28;20064;-41
2022/03/18 06:15:20;;;;;;;16.80;9.97;;;7.60;99.90;;;7.72;67.91;99466.34;5009673;28;20050;-41
2022/03/18 06:17:48;;;;;;;14.93;9.83;;;7.60;99.90;;;7.69;67.97;99475.31;5008771;28;20056;-41
2022/03/18 06:20:16;;;;;;;16.83;8.67;;;7.60;99.90;;;7.71;68.28;99471.75;5008681;28;20356;-41
2022/03/18 06:22:44;;;;;;;16.53;9.23;;;7.50;99.90;;;7.67;68.44;99471.91;5009372;28;20056;-40
2022/03/18 06:25:11;;;;;;;13.57;8.60;;;7.50;99.90;;;7.74;67.91;99482.16;5009276;28;20061;-40
2022/03/18 06:27:39;;;;;;;14.80;9.37;;;7.50;99.90;;;7.73;68.10;99475.97;5009736;28;20358;-41
2022/03/18 06:30:07;;;;;;;15.90;10.37;;;7.50;99.90;;;7.72;68.23;99476.94;5009081;28;20050;-41
2022/03/18 06:32:35;;;;;;;15.63;9.27;;;7.50;99.90;;;7.74;68.08;99475.06;5007986;28;20363;-41
2022/03/18 06:35:04;;;;;;;13.43;9.00;;;7.60;99.90;;;7.74;67.74;99480.34;5009694;28;20053;-41
2022/03/18 06:37:31;;;;;;;16.23;10.10;;;7.50;99.90;;;7.69;67.75;99485.94;5010107;28;20052;-41
2022/03/18 06:39:59;;;;;;;14.83;9.33;;;7.50;99.90;;;7.69;68.07;99475.31;5009284;28;20379;-41
2022/03/18 06:42:28;;;;;;;14.43;9.90;;;7.50;99.90;;;7.75;67.74;99482.03;5008762;28;20553;-41
2022/03/18 06:44:56;;;;;;;18.50;10.70;;;7.60;99.90;;;7.78;68.41;99481.84;5008388;28;20045;-41
2022/03/18 06:47:24;;;;;;;16.03;11.07;;;7.60;99.90;;;7.76;68.17;99486.41;5009086;28;20049;-41
2022/03/18 06:49:52;;;;;;;17.50;11.33;;;7.60;99.90;;;7.79;67.82;99485.34;5008964;28;20068;-41
2022/03/18 06:52:19;;;;;;;17.53;11.00;;;7.70;99.90;;;7.85;68.19;99491.13;5009722;28;20053;-41
2022/03/18 06:54:47;;;;;;;18.63;11.07;;;7.80;99.90;;;7.91;67.83;99495.19;5009515;28;20049;-41
2022/03/18 06:57:16;;;;;;;15.93;10.17;;;7.90;99.90;;;7.96;67.81;99501.03;5009255;28;20062;-41
2022/03/18 06:59:46;;;;;;;17.80;11.10;;;7.90;99.90;;;7.87;67.76;99504.25;5007706;28;20062;-41
2022/03/18 07:02:15;;;;;;;17.07;10.63;;;7.80;99.90;;;7.89;68.05;99503.22;5008301;28;20058;-43
2022/03/18 07:04:43;;;;;;;17.73;10.80;;;7.90;99.90;;;7.96;67.91;99501.03;5006516;28;20057;-41
2022/03/18 07:07:11;;;;;;;16.50;10.17;;;7.90;99.90;;;7.98;67.66;99508.88;5008770;28;20060;-41
2022/03/18 07:09:39;;;;;;;16.27;11.10;;;8.00;99.90;;;8.00;67.94;99512.28;5008101;28;20056;-41
2022/03/18 07:12:09;;;;;;;19.13;12.13;;;8.00;99.90;;;7.99;67.57;99510.59;5008224;28;20269;-40
2022/03/18 07:14:37;;;;;;;21.37;11.97;;;7.90;99.90;;;8.02;67.82;99513.03;5009706;28;20046;-41
2022/03/18 07:19:52;;;;;;;18.77;11.43;;;8.00;99.90;;;8.06;67.40;99515.41;5009001;28;20075;-41
2022/03/18 07:22:20;;;;;;;18.73;11.87;;;8.00;99.90;;;8.06;67.19;99519.84;5008738;28;20058;-40
2022/03/18 07:24:48;;;;;;;21.13;11.57;;;8.00;99.90;;;8.11;67.53;99519.56;5006874;28;20052;-41
2022/03/18 07:27:16;;;;;;;18.70;10.90;;;8.00;99.90;;;8.09;67.70;99523.16;5007306;28;20053;-40
2022/03/18 07:29:44;;;;;;;18.23;10.67;;;8.10;99.90;;;8.09;67.44;99520.50;5009144;28;20049;-40
2022/03/18 07:32:12;;;;;;;17.43;11.20;;;8.10;99.90;;;8.05;67.59;99523.47;5008946;28;20052;-41
2022/03/18 07:34:40;;;;;;;21.00;11.83;;;8.00;99.90;;;7.99;67.56;99521.22;5007561;28;20288;-40
2022/03/18 07:37:08;;;;;;;18.17;11.67;;;8.00;99.90;;;8.03;67.63;99522.72;5008892;28;20252;-40
2022/03/18 07:39:36;;;;;;;21.10;12.10;;;8.10;99.90;;;8.03;67.55;99520.06;5005287;28;20264;-40
2022/03/18 07:42:04;;;;;;;19.67;12.57;;;8.10;99.90;;;8.08;67.48;99524.13;5007300;28;20113;-41
2022/03/18 07:44:34;;;;;;;17.57;11.90;;;8.10;99.90;;;8.08;67.39;99524.13;5007673;28;20053;-41
2022/03/18 07:47:03;;;;;;;20.90;12.23;;;8.20;99.90;;;8.17;67.70;99532.44;5009318;28;20045;-40
2022/03/18 07:49:32;;;;;;;19.13;13.07;;;8.30;99.90;;;8.16;67.33;99534.25;5008507;28;20235;-41
2022/03/18 07:52:00;;;;;;;20.67;12.80;;;8.20;99.90;;;8.20;67.55;99532.22;5006893;28;20045;-41
2022/03/18 07:54:28;;;;;;;19.50;12.17;;;8.30;99.90;;;8.21;67.68;99536.56;5007831;28;20335;-42
2022/03/18 07:56:56;;;;;;;21.67;12.33;;;8.30;99.90;;;8.18;67.18;99540.28;5007684;28;20061;-41
2022/03/18 07:59:24;;;;;;;18.40;12.13;;;8.30;99.90;;;8.16;67.31;99547.50;5007840;28;20057;-41
2022/03/18 08:01:52;;;;;;;21.50;13.10;;;8.20;99.90;;;8.15;67.73;99543.13;5008438;28;20057;-41
2022/03/18 08:04:20;;;;;;;19.33;12.60;;;8.20;99.90;;;8.22;67.43;99536.47;5007789;28;20266;-41
2022/03/18 08:06:48;;;;;;;18.77;11.40;;;8.20;99.90;;;8.28;67.50;99545.84;5008299;28;20054;-41
2022/03/18 08:09:15;;;;;;;21.93;12.70;;;8.30;99.90;;;8.31;66.71;99542.13;5006905;28;20049;-41
2022/03/18 08:11:43;;;;;;;20.70;12.17;;;8.40;99.90;;;8.29;66.96;99547.53;5008771;28;20447;-41
2022/03/18 08:14:11;;;;;;;18.67;12.07;;;8.40;99.90;;;8.28;66.71;99554.66;5006559;28;20060;-41
2022/03/18 08:16:39;;;;;;;20.97;12.83;;;8.40;99.90;;;8.25;66.94;99564.59;5006859;28;20057;-41
2022/03/18 08:19:07;;;;;;;23.37;13.50;;;8.40;99.90;;;8.24;66.66;99566.41;5007087;28;20067;-41
2022/03/18 08:21:35;;;;;;;21.30;13.27;;;8.30;99.90;;;8.25;66.83;99562.81;5006823;28;20046;-41
2022/03/18 08:24:04;;;;;;;18.80;12.00;;;8.40;99.90;;;8.27;66.58;99563.56;5006681;28;20053;-41
2022/03/18 08:26:36;;;;;;;22.27;12.93;;;8.40;99.90;;;8.26;66.41;99567.16;5006723;28;20050;-41
2022/03/18 08:29:05;;;;;;;20.90;13.33;;;8.30;99.90;;;8.26;66.30;99567.16;5007001;28;20054;-41
2022/03/18 08:31:33;;;;;;;23.03;13.03;;;8.40;99.90;;;8.30;66.88;99573.13;5007025;28;20052;-41
2022/03/18 08:34:01;;;;;;;22.73;14.47;;;8.50;99.90;;;8.38;66.67;99569.97;5007395;28;20046;-41
2022/03/18 08:36:29;;;;;;;22.17;14.00;;;8.50;99.90;;;8.45;66.78;99568.63;5005944;28;20053;-41
2022/03/18 08:38:57;;;;;;;22.90;12.60;;;8.50;99.90;;;8.44;66.67;99570.44;5007541;28;20076;-41
2022/03/18 08:41:25;;;;;;;29.07;13.20;;;8.50;99.90;;;8.46;66.71;99567.69;5008081;28;20053;-41
2022/03/18 08:43:52;;;;;;;20.40;11.80;;;8.50;99.90;;;8.47;66.41;99570.25;5006922;28;20057;-41
2022/03/18 08:46:20;;;;;;;19.63;11.50;;;8.60;99.90;;;8.54;66.38;99569.84;5005533;28;20061;-41
2022/03/18 08:48:48;;;;;;;20.53;12.43;;;8.60;99.90;;;8.48;65.59;99577.25;5006992;28;20058;-41
2022/03/18 08:51:17;;;;;;;18.70;12.37;;;8.50;99.90;;;8.48;66.12;99582.56;5006902;28;20092;-41
2022/03/18 08:53:45;;;;;;;21.03;11.80;;;8.50;99.90;;;8.59;66.34;99583.69;5007135;28;20072;-41
2022/03/18 08:56:13;;;;;;;19.63;12.17;;;8.60;99.90;;;8.61;66.25;99582.63;5006664;28;20067;-41
2022/03/18 08:58:41;;;;;;;20.07;12.57;;;8.70;99.90;;;8.66;66.06;99591.13;5007333;28;20054;-41
2022/03/18 09:01:12;;;;;;;20.20;12.90;;;8.80;99.90;;;8.70;66.11;99586.47;5034552;28;20037;-41
2022/03/18 09:03:40;;;;;;;20.27;12.70;;;8.90;99.90;;;8.70;65.74;99598.88;5038041;28;20052;-41
2022/03/18 09:06:07;;;;;;;20.03;12.77;;;8.90;99.90;;;8.75;65.81;99597.63;5030055;28;20259;-41
2022/03/18 09:08:36;;;;;;;22.13;14.30;;;8.90;99.90;;;8.77;65.94;99594.88;5036421;28;20071;-41
2022/03/18 09:11:04;;;;;;;21.87;13.30;;;8.90;99.90;;;8.76;65.62;99603.78;5032862;28;20375;-41
2022/03/18 09:13:34;;;;;;;20.00;13.87;;;8.90;99.90;;;8.90;65.96;99597.56;5036768;28;20526;-41
2022/03/18 09:16:04;;;;;;;29.23;15.90;;;9.10;99.90;;;8.94;65.71;99593.75;5037734;28;20268;-41
2022/03/18 09:18:48;;;;;;;24.60;14.17;;;9.20;99.90;;;8.95;65.42;99601.59;5014092;28;20405;-41
2022/03/18 09:21:16;;;;;;;21.30;15.07;;;9.30;99.90;;;8.98;65.53;99604.06;5025524;28;20057;-42
2022/03/18 09:23:44;;;;;;;25.63;14.47;;;9.30;99.90;;;9.05;65.14;99610.69;5027263;28;20042;-41
2022/03/18 09:26:11;;;;;;;25.40;14.47;;;9.30;99.90;;;9.12;65.34;99612.91;5026310;28;20049;-42
2022/03/18 09:28:40;;;;;;;22.20;14.63;;;9.30;99.90;;;9.11;65.04;99611.19;5026430;28;20049;-41
2022/03/18 09:31:08;;;;;;;20.67;14.43;;;9.30;99.90;;;9.12;63.93;99613.75;5026794;28;20049;-39
2022/03/18 09:33:36;;;;;;;24.03;15.47;;;9.40;99.90;;;9.15;64.76;99618.00;5025817;28;20266;-39
2022/03/18 09:36:04;;;;;;;22.77;14.33;;;9.50;99.90;;;9.24;64.90;99623.53;5028741;28;20057;-39
2022/03/18 09:38:32;;;;;;;22.70;15.00;;;9.60;99.90;;;9.36;64.83;99618.34;5029887;28;20051;-39
2022/03/18 09:41:00;;;;;;;26.83;15.17;;;9.60;99.90;;;9.38;63.65;99622.63;5030820;28;20059;-39
2022/03/18 09:43:38;;;;;;;28.43;16.57;;;9.70;99.70;;;9.31;62.84;99617.84;5030428;28;20053;-40
2022/03/18 09:46:10;;;;;;;28.73;17.90;;;9.70;95.70;;;9.34;64.03;99618.44;5029080;28;20037;-39
2022/03/18 09:49:05;;;;;;;26.83;17.33;;;9.70;97.70;;;9.39;64.22;99621.66;5030668;28;20539;-39
2022/03/18 09:51:33;;;;;;;23.60;15.50;;;9.80;97.20;;;9.34;62.74;99613.13;5031190;28;20050;-39
2022/03/18 09:54:29;;;;;;;28.90;15.73;;;9.60;92.80;;;9.33;63.62;99621.25;5029448;28;20068;-39
2022/03/18 09:56:59;;;;;;;24.97;16.17;;;9.60;93.50;;;9.35;63.19;99624.66;5030891;28;20059;-39
2022/03/18 09:59:27;;;;;;;23.97;15.57;;;9.70;92.30;;;9.32;62.95;99624.84;5027939;28;20405;-39
2022/03/18 10:02:28;;;;;;;25.17;15.13;;;9.70;90.30;;;9.49;62.96;99629.84;5030851;28;20322;-39
2022/03/18 10:05:02;;;;;;;25.23;17.83;;;9.90;90.50;;;9.64;63.42;99630.59;5029067;28;20057;-39
2022/03/18 10:07:30;;;;;;;29.88;17.42;;;10.00;90.20;;;9.75;63.15;99630.72;5030484;28;20057;-39
2022/03/18 10:10:08;;;;;;;27.67;17.30;;;10.20;89.20;;;9.80;62.41;99628.56;5029179;28;20053;-39
2022/03/18 10:12:39;;;;;;;30.60;18.20;;;10.20;85.50;;;9.80;62.21;99631.22;5030034;28;20045;-38
2022/03/18 10:15:15;;;;;;;27.30;16.80;;;10.30;83.90;;;9.73;62.06;99637.06;5028916;28;20046;-38
2022/03/18 10:17:52;;;;;;;31.50;18.53;;;10.20;84.30;;;9.80;61.75;99635.69;5030444;28;20408;-38
2022/03/18 10:20:32;;;;;;;28.23;17.83;;;10.20;85.30;;;9.84;62.12;99635.34;5029228;28;20247;-38
2022/03/18 10:23:22;;;;;;;31.97;18.77;;;10.20;85.00;;;9.86;60.84;99636.09;5030048;28;20069;-38
2022/03/18 10:25:57;;;;;;;28.83;16.73;;;10.20;82.00;;;9.86;60.97;99627.28;5028013;28;20053;-38
2022/03/18 10:28:36;;;;;;;33.07;19.17;;;10.30;83.10;;;9.83;61.42;99636.34;5028261;28;20244;-38
2022/03/18 10:31:22;;;;;;;31.43;19.53;;;10.20;81.90;;;9.74;60.30;99631.66;5028966;28;20041;-39
2022/03/18 10:37:08;;;;;;;31.70;17.97;;;10.20;81.40;;;9.85;61.45;99636.22;5029190;28;20053;-39
2022/03/18 10:39:41;;;;;;;28.63;18.40;;;10.10;80.40;;;9.85;61.27;99636.22;5025721;28;20060;-39
2022/03/18 10:42:15;;;;;;;28.17;17.57;;;10.10;81.30;;;9.88;61.58;99633.34;5029665;28;20366;-39
2022/03/18 10:44:43;;;;;;;31.43;18.87;;;10.20;81.90;;;10.02;61.97;99635.03;5029395;28;20069;-38
2022/03/18 10:47:36;;;;;;;29.37;17.80;;;10.30;82.30;;;9.98;60.61;99626.44;5027854;28;20047;-38